sensor_id;sensor_type;location;lat;lon;timestamp;P1;durP1;ratioP1;P2;durP2;ratioP2
29776;SDS011;16677;52.224;7.484;2022-09-01T00:02:28;3.07;;;2.10;;
29776;SDS011;16677;52.224;7.484;2022-09-01T00:04:56;3.20;;;1.70;;
29776;SDS011;16677;52.224;7.484;2022-09-01T00:07:25;2.97;;;2.00;;
29776;SDS011;16677;52.224;7.484;2022-09-01T00:09:56;3.47;;;2.23;;
29776;SDS011;16677;52.224;7.484;2022-09-01T00:12:24;2.63;;;2.00;;
29776;SDS011;16677;52.224;7.484;2022-09-01T00:14:51;2.30;;;1.90;;
29776;SDS011;16677;52.224;7.484;2022-09-01T00:17:19;2.10;;;1.90;;
29776;SDS011;16677;52.224;7.484;2022-09-01T00:19:46;2.20;;;1.83;;
29776;SDS011;16677;52.224;7.484;2022-09-01T00:22:13;2.40;;;1.90;;
29776;SDS011;16677;52.224;7.484;2022-09-01T00:24:42;6.83;;;2.27;;
29776;SDS011;16677;52.224;7.484;2022-09-01T00:27:09;2.23;;;2.03;;
29776;SDS011;16677;52.224;7.484;2022-09-01T00:29:38;5.40;;;2.00;;
29776;SDS011;16677;52.224;7.484;2022-09-01T00:32:09;2.70;;;2.10;;
29776;SDS011;16677;52.224;7.484;2022-09-01T00:34:36;2.23;;;1.80;;
29776;SDS011;16677;52.224;7.484;2022-09-01T00:37:04;2.80;;;1.90;;
29776;SDS011;16677;52.224;7.484;2022-09-01T00:39:31;4.30;;;1.90;;
29776;SDS011;16677;52.224;7.484;2022-09-01T00:41:58;2.53;;;1.90;;
29776;SDS011;16677;52.224;7.484;2022-09-01T00:44:25;2.10;;;1.70;;
29776;SDS011;16677;52.224;7.484;2022-09-01T00:46:56;3.10;;;1.97;;
29776;SDS011;16677;52.224;7.484;2022-09-01T00:49:34;3.30;;;2.00;;
29776;SDS011;16677;52.224;7.484;2022-09-01T00:52:28;2.40;;;1.80;;
29776;SDS011;16677;52.224;7.484;2022-09-01T00:54:59;2.40;;;1.90;;
29776;SDS011;16677;52.224;7.484;2022-09-01T00:57:34;3.23;;;1.90;;
29776;SDS011;16677;52.224;7.484;2022-09-01T01:00:05;3.77;;;2.00;;
29776;SDS011;16677;52.224;7.484;2022-09-01T01:02:38;3.97;;;2.20;;
29776;SDS011;16677;52.224;7.484;2022-09-01T01:05:06;3.30;;;2.13;;
29776;SDS011;16677;52.224;7.484;2022-09-01T01:07:37;3.37;;;2.00;;
29776;SDS011;16677;52.224;7.484;2022-09-01T01:10:12;4.33;;;2.10;;
29776;SDS011;16677;52.224;7.484;2022-09-01T01:12:41;2.77;;;2.00;;
29776;SDS011;16677;52.224;7.484;2022-09-01T01:15:13;3.80;;;2.20;;
29776;SDS011;16677;52.224;7.484;2022-09-01T01:17:40;2.90;;;2.20;;
29776;SDS011;16677;52.224;7.484;2022-09-01T01:20:08;2.30;;;2.10;;
29776;SDS011;16677;52.224;7.484;2022-09-01T01:25:49;5.33;;;2.10;;
29776;SDS011;16677;52.224;7.484;2022-09-01T01:28:20;2.17;;;1.90;;
29776;SDS011;16677;52.224;7.484;2022-09-01T01:30:58;2.90;;;2.60;;
29776;SDS011;16677;52.224;7.484;2022-09-01T01:33:39;2.70;;;1.87;;
29776;SDS011;16677;52.224;7.484;2022-09-01T01:36:09;3.50;;;2.23;;
29776;SDS011;16677;52.224;7.484;2022-09-01T01:38:39;3.87;;;2.40;;
29776;SDS011;16677;52.224;7.484;2022-09-01T01:41:09;2.00;;;1.90;;
29776;SDS011;16677;52.224;7.484;2022-09-01T01:43:37;3.73;;;2.30;;
29776;SDS011;16677;52.224;7.484;2022-09-01T01:46:06;5.33;;;2.43;;
29776;SDS011;16677;52.224;7.484;2022-09-01T01:48:35;3.80;;;2.10;;
29776;SDS011;16677;52.224;7.484;2022-09-01T01:51:05;2.13;;;1.90;;
29776;SDS011;16677;52.224;7.484;2022-09-01T01:53:32;2.83;;;2.10;;
29776;SDS011;16677;52.224;7.484;2022-09-01T01:56:00;2.73;;;1.73;;
29776;SDS011;16677;52.224;7.484;2022-09-01T01:58:28;3.37;;;2.13;;
29776;SDS011;16677;52.224;7.484;2022-09-01T02:00:55;4.47;;;2.20;;
29776;SDS011;16677;52.224;7.484;2022-09-01T02:03:25;4.17;;;2.37;;
29776;SDS011;16677;52.224;7.484;2022-09-01T02:06:01;3.43;;;2.03;;
29776;SDS011;16677;52.224;7.484;2022-09-01T02:08:32;3.70;;;2.20;;
29776;SDS011;16677;52.224;7.484;2022-09-01T02:11:01;3.20;;;1.90;;
29776;SDS011;16677;52.224;7.484;2022-09-01T02:13:31;3.70;;;2.17;;
29776;SDS011;16677;52.224;7.484;2022-09-01T02:16:01;2.23;;;2.03;;
29776;SDS011;16677;52.224;7.484;2022-09-01T02:18:34;4.37;;;2.40;;
29776;SDS011;16677;52.224;7.484;2022-09-01T02:21:06;2.67;;;2.33;;
29776;SDS011;16677;52.224;7.484;2022-09-01T02:23:41;3.70;;;2.40;;
29776;SDS011;16677;52.224;7.484;2022-09-01T02:26:09;6.07;;;2.23;;
29776;SDS011;16677;52.224;7.484;2022-09-01T02:28:45;6.07;;;2.13;;
29776;SDS011;16677;52.224;7.484;2022-09-01T02:31:20;1.90;;;1.80;;
29776;SDS011;16677;52.224;7.484;2022-09-01T02:33:49;4.40;;;2.13;;
29776;SDS011;16677;52.224;7.484;2022-09-01T02:36:19;3.27;;;2.30;;
29776;SDS011;16677;52.224;7.484;2022-09-01T02:38:46;4.87;;;2.07;;
29776;SDS011;16677;52.224;7.484;2022-09-01T02:41:21;4.07;;;1.80;;
29776;SDS011;16677;52.224;7.484;2022-09-01T02:43:50;2.67;;;2.03;;
29776;SDS011;16677;52.224;7.484;2022-09-01T02:46:17;3.10;;;1.90;;
29776;SDS011;16677;52.224;7.484;2022-09-01T02:48:49;3.23;;;2.03;;
29776;SDS011;16677;52.224;7.484;2022-09-01T02:51:20;3.73;;;2.27;;
29776;SDS011;16677;52.224;7.484;2022-09-01T02:53:51;3.07;;;2.70;;
29776;SDS011;16677;52.224;7.484;2022-09-01T02:56:20;5.67;;;2.57;;
29776;SDS011;16677;52.224;7.484;2022-09-01T02:58:52;2.10;;;1.87;;
29776;SDS011;16677;52.224;7.484;2022-09-01T03:01:21;2.87;;;2.40;;
29776;SDS011;16677;52.224;7.484;2022-09-01T03:03:56;4.60;;;3.13;;
29776;SDS011;16677;52.224;7.484;2022-09-01T03:06:31;5.73;;;2.50;;
29776;SDS011;16677;52.224;7.484;2022-09-01T03:08:59;3.70;;;2.80;;
29776;SDS011;16677;52.224;7.484;2022-09-01T03:11:29;4.23;;;2.57;;
29776;SDS011;16677;52.224;7.484;2022-09-01T03:13:57;3.93;;;3.00;;
29776;SDS011;16677;52.224;7.484;2022-09-01T03:16:24;3.70;;;2.50;;
29776;SDS011;16677;52.224;7.484;2022-09-01T03:18:52;3.90;;;2.60;;
29776;SDS011;16677;52.224;7.484;2022-09-01T03:21:19;3.50;;;2.83;;
29776;SDS011;16677;52.224;7.484;2022-09-01T03:23:48;3.57;;;3.23;;
29776;SDS011;16677;52.224;7.484;2022-09-01T03:26:16;3.37;;;3.03;;
29776;SDS011;16677;52.224;7.484;2022-09-01T03:28:47;4.73;;;2.70;;
29776;SDS011;16677;52.224;7.484;2022-09-01T03:31:15;3.73;;;3.00;;
29776;SDS011;16677;52.224;7.484;2022-09-01T03:33:44;4.57;;;2.93;;
29776;SDS011;16677;52.224;7.484;2022-09-01T03:36:12;4.03;;;3.00;;
29776;SDS011;16677;52.224;7.484;2022-09-01T03:38:45;5.77;;;3.20;;
29776;SDS011;16677;52.224;7.484;2022-09-01T03:41:15;3.13;;;2.90;;
29776;SDS011;16677;52.224;7.484;2022-09-01T03:43:44;3.80;;;3.50;;
29776;SDS011;16677;52.224;7.484;2022-09-01T03:46:14;5.33;;;3.10;;
29776;SDS011;16677;52.224;7.484;2022-09-01T03:48:52;6.70;;;3.73;;
29776;SDS011;16677;52.224;7.484;2022-09-01T03:51:21;5.07;;;3.50;;
29776;SDS011;16677;52.224;7.484;2022-09-01T03:53:51;4.10;;;3.13;;
29776;SDS011;16677;52.224;7.484;2022-09-01T03:56:24;3.20;;;2.90;;
29776;SDS011;16677;52.224;7.484;2022-09-01T03:58:56;4.67;;;3.20;;
29776;SDS011;16677;52.224;7.484;2022-09-01T04:01:26;4.20;;;2.90;;
29776;SDS011;16677;52.224;7.484;2022-09-01T04:03:59;5.10;;;2.80;;
29776;SDS011;16677;52.224;7.484;2022-09-01T04:06:26;3.67;;;3.00;;
29776;SDS011;16677;52.224;7.484;2022-09-01T04:08:56;3.87;;;3.27;;
29776;SDS011;16677;52.224;7.484;2022-09-01T04:11:28;3.80;;;2.90;;
29776;SDS011;16677;52.224;7.484;2022-09-01T04:13:56;3.37;;;2.83;;
29776;SDS011;16677;52.224;7.484;2022-09-01T04:16:25;4.73;;;2.67;;
29776;SDS011;16677;52.224;7.484;2022-09-01T04:19:14;6.50;;;3.03;;
29776;SDS011;16677;52.224;7.484;2022-09-01T04:21:46;2.83;;;2.63;;
29776;SDS011;16677;52.224;7.484;2022-09-01T04:24:24;6.07;;;3.87;;
29776;SDS011;16677;52.224;7.484;2022-09-01T04:26:57;6.27;;;3.57;;
29776;SDS011;16677;52.224;7.484;2022-09-01T04:29:27;5.67;;;2.70;;
29776;SDS011;16677;52.224;7.484;2022-09-01T04:32:08;4.83;;;3.03;;
29776;SDS011;16677;52.224;7.484;2022-09-01T04:34:38;3.20;;;2.90;;
29776;SDS011;16677;52.224;7.484;2022-09-01T04:39:40;4.57;;;2.87;;
29776;SDS011;16677;52.224;7.484;2022-09-01T04:42:20;3.77;;;2.70;;
29776;SDS011;16677;52.224;7.484;2022-09-01T04:44:50;7.27;;;2.70;;
29776;SDS011;16677;52.224;7.484;2022-09-01T04:47:19;3.20;;;2.93;;
29776;SDS011;16677;52.224;7.484;2022-09-01T04:50:01;4.40;;;2.63;;
29776;SDS011;16677;52.224;7.484;2022-09-01T04:52:29;4.90;;;2.90;;
29776;SDS011;16677;52.224;7.484;2022-09-01T04:54:57;3.50;;;2.70;;
29776;SDS011;16677;52.224;7.484;2022-09-01T04:57:24;6.47;;;2.60;;
29776;SDS011;16677;52.224;7.484;2022-09-01T04:59:53;2.80;;;2.50;;
29776;SDS011;16677;52.224;7.484;2022-09-01T05:02:22;5.27;;;3.13;;
29776;SDS011;16677;52.224;7.484;2022-09-01T05:04:52;4.77;;;3.00;;
29776;SDS011;16677;52.224;7.484;2022-09-01T05:07:20;5.67;;;3.20;;
29776;SDS011;16677;52.224;7.484;2022-09-01T05:09:49;6.80;;;3.10;;
29776;SDS011;16677;52.224;7.484;2022-09-01T05:12:26;6.73;;;2.90;;
29776;SDS011;16677;52.224;7.484;2022-09-01T05:14:53;7.97;;;3.10;;
29776;SDS011;16677;52.224;7.484;2022-09-01T05:17:21;5.30;;;3.20;;
29776;SDS011;16677;52.224;7.484;2022-09-01T05:19:51;4.83;;;2.80;;
29776;SDS011;16677;52.224;7.484;2022-09-01T05:22:19;5.57;;;3.00;;
29776;SDS011;16677;52.224;7.484;2022-09-01T05:24:48;4.80;;;3.27;;
29776;SDS011;16677;52.224;7.484;2022-09-01T05:27:20;4.73;;;3.37;;
29776;SDS011;16677;52.224;7.484;2022-09-01T05:29:48;4.93;;;3.03;;
29776;SDS011;16677;52.224;7.484;2022-09-01T05:32:15;5.30;;;3.10;;
29776;SDS011;16677;52.224;7.484;2022-09-01T05:34:42;3.40;;;3.10;;
29776;SDS011;16677;52.224;7.484;2022-09-01T05:37:11;4.33;;;2.80;;
29776;SDS011;16677;52.224;7.484;2022-09-01T05:39:40;3.13;;;2.73;;
29776;SDS011;16677;52.224;7.484;2022-09-01T05:42:07;4.90;;;2.53;;
29776;SDS011;16677;52.224;7.484;2022-09-01T05:44:35;6.40;;;2.93;;
29776;SDS011;16677;52.224;7.484;2022-09-01T05:47:04;3.33;;;2.37;;
29776;SDS011;16677;52.224;7.484;2022-09-01T05:49:46;4.20;;;2.50;;
29776;SDS011;16677;52.224;7.484;2022-09-01T05:52:15;5.33;;;2.13;;
29776;SDS011;16677;52.224;7.484;2022-09-01T05:54:42;3.20;;;2.37;;
29776;SDS011;16677;52.224;7.484;2022-09-01T05:57:15;2.40;;;2.20;;
29776;SDS011;16677;52.224;7.484;2022-09-01T05:59:59;2.20;;;2.00;;
29776;SDS011;16677;52.224;7.484;2022-09-01T06:02:28;2.77;;;2.10;;
29776;SDS011;16677;52.224;7.484;2022-09-01T06:04:56;6.63;;;2.47;;
29776;SDS011;16677;52.224;7.484;2022-09-01T06:07:25;5.50;;;2.23;;
29776;SDS011;16677;52.224;7.484;2022-09-01T06:09:54;4.33;;;2.33;;
29776;SDS011;16677;52.224;7.484;2022-09-01T06:12:22;4.67;;;2.10;;
29776;SDS011;16677;52.224;7.484;2022-09-01T06:14:51;4.07;;;2.20;;
29776;SDS011;16677;52.224;7.484;2022-09-01T06:17:20;7.43;;;2.60;;
29776;SDS011;16677;52.224;7.484;2022-09-01T06:19:51;12.27;;;2.70;;
29776;SDS011;16677;52.224;7.484;2022-09-01T06:22:21;8.63;;;2.80;;
29776;SDS011;16677;52.224;7.484;2022-09-01T06:24:50;11.20;;;2.40;;
29776;SDS011;16677;52.224;7.484;2022-09-01T06:27:27;11.13;;;2.47;;
29776;SDS011;16677;52.224;7.484;2022-09-01T06:29:54;12.03;;;2.67;;
29776;SDS011;16677;52.224;7.484;2022-09-01T06:32:23;10.37;;;1.83;;
29776;SDS011;16677;52.224;7.484;2022-09-01T06:34:51;5.67;;;1.87;;
29776;SDS011;16677;52.224;7.484;2022-09-01T06:37:18;10.17;;;2.13;;
29776;SDS011;16677;52.224;7.484;2022-09-01T06:39:48;8.30;;;2.33;;
29776;SDS011;16677;52.224;7.484;2022-09-01T06:42:16;8.17;;;2.30;;
29776;SDS011;16677;52.224;7.484;2022-09-01T06:44:44;6.97;;;2.23;;
29776;SDS011;16677;52.224;7.484;2022-09-01T06:47:12;7.77;;;2.67;;
29776;SDS011;16677;52.224;7.484;2022-09-01T06:49:40;3.27;;;2.13;;
29776;SDS011;16677;52.224;7.484;2022-09-01T06:52:08;7.30;;;2.23;;
29776;SDS011;16677;52.224;7.484;2022-09-01T06:54:52;5.27;;;2.20;;
29776;SDS011;16677;52.224;7.484;2022-09-01T06:57:33;5.70;;;2.17;;
29776;SDS011;16677;52.224;7.484;2022-09-01T07:00:28;3.13;;;2.00;;
29776;SDS011;16677;52.224;7.484;2022-09-01T07:02:56;5.37;;;2.03;;
29776;SDS011;16677;52.224;7.484;2022-09-01T07:05:24;2.20;;;1.90;;
29776;SDS011;16677;52.224;7.484;2022-09-01T07:08:13;5.43;;;2.00;;
29776;SDS011;16677;52.224;7.484;2022-09-01T07:10:46;4.10;;;1.80;;
29776;SDS011;16677;52.224;7.484;2022-09-01T07:13:35;5.33;;;1.87;;
29776;SDS011;16677;52.224;7.484;2022-09-01T07:16:04;3.20;;;1.80;;
29776;SDS011;16677;52.224;7.484;2022-09-01T07:18:53;3.70;;;1.90;;
29776;SDS011;16677;52.224;7.484;2022-09-01T07:21:24;3.20;;;1.70;;
29776;SDS011;16677;52.224;7.484;2022-09-01T07:24:12;2.63;;;1.60;;
29776;SDS011;16677;52.224;7.484;2022-09-01T07:26:43;4.40;;;1.33;;
29776;SDS011;16677;52.224;7.484;2022-09-01T07:29:15;4.00;;;1.50;;
29776;SDS011;16677;52.224;7.484;2022-09-01T07:31:43;5.67;;;1.70;;
29776;SDS011;16677;52.224;7.484;2022-09-01T07:34:30;3.23;;;1.70;;
29776;SDS011;16677;52.224;7.484;2022-09-01T07:37:06;3.43;;;1.60;;
29776;SDS011;16677;52.224;7.484;2022-09-01T07:39:54;2.40;;;1.40;;
29776;SDS011;16677;52.224;7.484;2022-09-01T07:42:21;3.40;;;1.43;;
29776;SDS011;16677;52.224;7.484;2022-09-01T07:45:10;4.60;;;1.67;;
29776;SDS011;16677;52.224;7.484;2022-09-01T07:47:54;2.97;;;1.30;;
29776;SDS011;16677;52.224;7.484;2022-09-01T07:50:22;2.73;;;1.40;;
29776;SDS011;16677;52.224;7.484;2022-09-01T07:53:12;2.50;;;1.70;;
29776;SDS011;16677;52.224;7.484;2022-09-01T07:55:44;4.87;;;1.40;;
29776;SDS011;16677;52.224;7.484;2022-09-01T07:58:12;3.87;;;1.63;;
29776;SDS011;16677;52.224;7.484;2022-09-01T08:00:39;2.97;;;1.30;;
29776;SDS011;16677;52.224;7.484;2022-09-01T08:03:11;3.43;;;1.50;;
29776;SDS011;16677;52.224;7.484;2022-09-01T08:05:39;5.87;;;1.40;;
29776;SDS011;16677;52.224;7.484;2022-09-01T08:08:07;2.47;;;1.23;;
29776;SDS011;16677;52.224;7.484;2022-09-01T08:10:54;3.67;;;1.17;;
29776;SDS011;16677;52.224;7.484;2022-09-01T08:13:29;2.58;;;1.25;;
29776;SDS011;16677;52.224;7.484;2022-09-01T08:16:04;4.33;;;1.33;;
29776;SDS011;16677;52.224;7.484;2022-09-01T08:18:41;3.13;;;1.23;;
29776;SDS011;16677;52.224;7.484;2022-09-01T08:21:17;2.55;;;1.25;;
29776;SDS011;16677;52.224;7.484;2022-09-01T08:23:47;4.07;;;1.50;;
29776;SDS011;16677;52.224;7.484;2022-09-01T08:26:16;3.33;;;1.42;;
29776;SDS011;16677;52.224;7.484;2022-09-01T08:28:45;1.20;;;1.00;;
29776;SDS011;16677;52.224;7.484;2022-09-01T08:31:21;2.00;;;1.27;;
29776;SDS011;16677;52.224;7.484;2022-09-01T08:33:48;2.67;;;1.42;;
29776;SDS011;16677;52.224;7.484;2022-09-01T08:36:16;3.73;;;1.40;;
29776;SDS011;16677;52.224;7.484;2022-09-01T08:38:49;1.50;;;1.00;;
29776;SDS011;16677;52.224;7.484;2022-09-01T08:47:11;4.65;;;1.35;;
29776;SDS011;16677;52.224;7.484;2022-09-01T08:49:53;1.30;;;1.02;;
29776;SDS011;16677;52.224;7.484;2022-09-01T08:52:34;2.28;;;1.20;;
29776;SDS011;16677;52.224;7.484;2022-09-01T14:46:08;2.97;;;1.30;;
29776;SDS011;16677;52.224;7.484;2022-09-01T17:09:12;0.98;;;0.90;;
29776;SDS011;16677;52.224;7.484;2022-09-01T17:11:52;2.20;;;1.08;;
29776;SDS011;16677;52.224;7.484;2022-09-01T17:14:29;3.03;;;1.05;;
29776;SDS011;16677;52.224;7.484;2022-09-01T17:17:20;2.40;;;1.00;;
29776;SDS011;16677;52.224;7.484;2022-09-01T17:20:14;1.98;;;1.00;;
29776;SDS011;16677;52.224;7.484;2022-09-01T17:22:48;2.47;;;1.27;;
29776;SDS011;16677;52.224;7.484;2022-09-01T17:25:32;1.65;;;1.10;;
29776;SDS011;16677;52.224;7.484;2022-09-01T17:28:41;2.10;;;1.02;;
29776;SDS011;16677;52.224;7.484;2022-09-01T17:40:24;3.25;;;1.10;;
29776;SDS011;16677;52.224;7.484;2022-09-01T17:43:06;4.20;;;1.10;;
29776;SDS011;16677;52.224;7.484;2022-09-01T17:56:45;1.73;;;1.13;;
29776;SDS011;16677;52.224;7.484;2022-09-01T17:59:23;1.33;;;1.00;;
29776;SDS011;16677;52.224;7.484;2022-09-01T18:07:16;1.23;;;1.00;;
29776;SDS011;16677;52.224;7.484;2022-09-01T18:09:51;3.00;;;1.30;;
29776;SDS011;16677;52.224;7.484;2022-09-01T18:12:24;1.92;;;0.98;;
29776;SDS011;16677;52.224;7.484;2022-09-01T18:15:05;4.43;;;1.70;;
29776;SDS011;16677;52.224;7.484;2022-09-01T18:17:38;3.35;;;1.35;;
29776;SDS011;16677;52.224;7.484;2022-09-01T18:36:38;1.83;;;1.23;;
29776;SDS011;16677;52.224;7.484;2022-09-01T18:41:49;3.23;;;1.10;;
29776;SDS011;16677;52.224;7.484;2022-09-01T18:50:37;2.97;;;1.10;;
29776;SDS011;16677;52.224;7.484;2022-09-01T18:56:13;2.60;;;1.30;;
29776;SDS011;16677;52.224;7.484;2022-09-01T19:01:37;3.43;;;1.07;;
29776;SDS011;16677;52.224;7.484;2022-09-01T19:09:57;1.13;;;1.00;;
29776;SDS011;16677;52.224;7.484;2022-09-01T19:12:46;1.30;;;1.00;;
29776;SDS011;16677;52.224;7.484;2022-09-01T19:15:56;1.77;;;1.10;;
29776;SDS011;16677;52.224;7.484;2022-09-01T19:19:07;1.40;;;1.20;;
29776;SDS011;16677;52.224;7.484;2022-09-01T19:21:58;2.67;;;1.10;;
29776;SDS011;16677;52.224;7.484;2022-09-01T19:24:28;2.60;;;1.10;;
29776;SDS011;16677;52.224;7.484;2022-09-01T19:27:15;1.83;;;1.10;;
29776;SDS011;16677;52.224;7.484;2022-09-01T19:29:54;3.07;;;1.10;;
29776;SDS011;16677;52.224;7.484;2022-09-01T19:32:28;3.23;;;1.33;;
29776;SDS011;16677;52.224;7.484;2022-09-01T19:35:03;1.90;;;1.20;;
29776;SDS011;16677;52.224;7.484;2022-09-01T19:37:53;2.23;;;1.30;;
29776;SDS011;16677;52.224;7.484;2022-09-01T19:40:26;2.10;;;1.20;;
29776;SDS011;16677;52.224;7.484;2022-09-01T19:43:14;2.47;;;0.90;;
29776;SDS011;16677;52.224;7.484;2022-09-01T20:08:19;2.40;;;1.00;;
29776;SDS011;16677;52.224;7.484;2022-09-01T20:16:23;1.37;;;1.00;;
29776;SDS011;16677;52.224;7.484;2022-09-01T20:21:45;1.37;;;1.10;;
29776;SDS011;16677;52.224;7.484;2022-09-01T20:24:16;2.10;;;1.13;;
29776;SDS011;16677;52.224;7.484;2022-09-01T20:29:25;3.00;;;1.33;;
29776;SDS011;16677;52.224;7.484;2022-09-01T20:32:08;2.77;;;1.07;;
29776;SDS011;16677;52.224;7.484;2022-09-01T20:34:48;1.80;;;1.20;;
29776;SDS011;16677;52.224;7.484;2022-09-01T20:37:23;1.20;;;1.03;;
29776;SDS011;16677;52.224;7.484;2022-09-01T20:42:38;1.87;;;1.10;;
29776;SDS011;16677;52.224;7.484;2022-09-01T20:45:17;2.87;;;1.10;;
29776;SDS011;16677;52.224;7.484;2022-09-01T20:47:56;2.60;;;1.00;;
29776;SDS011;16677;52.224;7.484;2022-09-01T20:58:46;3.10;;;1.20;;
29776;SDS011;16677;52.224;7.484;2022-09-01T21:01:38;6.67;;;1.37;;
29776;SDS011;16677;52.224;7.484;2022-09-01T21:04:48;1.57;;;1.20;;
29776;SDS011;16677;52.224;7.484;2022-09-01T21:07:15;1.57;;;1.20;;
29776;SDS011;16677;52.224;7.484;2022-09-01T21:12:21;1.70;;;0.90;;
29776;SDS011;16677;52.224;7.484;2022-09-01T21:15:09;2.43;;;0.90;;
29776;SDS011;16677;52.224;7.484;2022-09-01T21:18:00;1.77;;;1.10;;
29776;SDS011;16677;52.224;7.484;2022-09-01T21:23:16;5.47;;;1.30;;
29776;SDS011;16677;52.224;7.484;2022-09-01T21:25:46;1.30;;;0.90;;
29776;SDS011;16677;52.224;7.484;2022-09-01T21:28:14;1.30;;;0.97;;
29776;SDS011;16677;52.224;7.484;2022-09-01T21:30:48;1.23;;;0.93;;
29776;SDS011;16677;52.224;7.484;2022-09-01T21:33:20;2.70;;;1.30;;
29776;SDS011;16677;52.224;7.484;2022-09-01T21:35:48;2.83;;;1.37;;
29776;SDS011;16677;52.224;7.484;2022-09-01T21:38:16;2.40;;;1.00;;
29776;SDS011;16677;52.224;7.484;2022-09-01T21:40:43;3.63;;;1.17;;
29776;SDS011;16677;52.224;7.484;2022-09-01T21:43:16;2.43;;;1.00;;
29776;SDS011;16677;52.224;7.484;2022-09-01T21:45:46;1.77;;;1.10;;
29776;SDS011;16677;52.224;7.484;2022-09-01T21:48:14;3.63;;;1.00;;
29776;SDS011;16677;52.224;7.484;2022-09-01T21:50:41;1.93;;;1.10;;
29776;SDS011;16677;52.224;7.484;2022-09-01T21:53:09;1.50;;;0.97;;
29776;SDS011;16677;52.224;7.484;2022-09-01T21:55:39;2.50;;;1.17;;
29776;SDS011;16677;52.224;7.484;2022-09-01T21:58:06;2.17;;;1.10;;
29776;SDS011;16677;52.224;7.484;2022-09-01T22:00:35;2.90;;;1.03;;
29776;SDS011;16677;52.224;7.484;2022-09-01T22:03:09;1.10;;;1.00;;
29776;SDS011;16677;52.224;7.484;2022-09-01T22:05:37;1.80;;;1.13;;
29776;SDS011;16677;52.224;7.484;2022-09-01T22:08:10;6.50;;;1.27;;
29776;SDS011;16677;52.224;7.484;2022-09-01T22:10:41;1.20;;;1.00;;
29776;SDS011;16677;52.224;7.484;2022-09-01T22:13:10;1.30;;;1.00;;
29776;SDS011;16677;52.224;7.484;2022-09-01T22:15:42;2.43;;;1.03;;
29776;SDS011;16677;52.224;7.484;2022-09-01T22:18:11;1.50;;;1.07;;
29776;SDS011;16677;52.224;7.484;2022-09-01T22:20:39;2.57;;;1.10;;
29776;SDS011;16677;52.224;7.484;2022-09-01T22:23:07;1.17;;;0.90;;
29776;SDS011;16677;52.224;7.484;2022-09-01T22:25:34;4.30;;;1.00;;
29776;SDS011;16677;52.224;7.484;2022-09-01T22:28:05;4.67;;;1.20;;
29776;SDS011;16677;52.224;7.484;2022-09-01T22:30:32;2.63;;;1.00;;
29776;SDS011;16677;52.224;7.484;2022-09-01T22:33:00;3.63;;;1.00;;
29776;SDS011;16677;52.224;7.484;2022-09-01T22:35:27;3.47;;;1.13;;
29776;SDS011;16677;52.224;7.484;2022-09-01T22:37:55;0.80;;;0.80;;
29776;SDS011;16677;52.224;7.484;2022-09-01T22:40:22;4.07;;;1.20;;
29776;SDS011;16677;52.224;7.484;2022-09-01T22:42:49;2.33;;;0.93;;
29776;SDS011;16677;52.224;7.484;2022-09-01T22:45:17;2.57;;;1.10;;
29776;SDS011;16677;52.224;7.484;2022-09-01T22:47:44;2.03;;;0.80;;
29776;SDS011;16677;52.224;7.484;2022-09-01T22:50:11;1.23;;;0.83;;
29776;SDS011;16677;52.224;7.484;2022-09-01T22:52:38;2.30;;;1.13;;
29776;SDS011;16677;52.224;7.484;2022-09-01T22:55:06;2.83;;;1.10;;
29776;SDS011;16677;52.224;7.484;2022-09-01T22:57:35;3.50;;;1.07;;
29776;SDS011;16677;52.224;7.484;2022-09-01T23:00:07;2.70;;;1.20;;
29776;SDS011;16677;52.224;7.484;2022-09-01T23:02:46;2.10;;;0.90;;
29776;SDS011;16677;52.224;7.484;2022-09-01T23:05:13;2.33;;;1.10;;
29776;SDS011;16677;52.224;7.484;2022-09-01T23:07:41;4.13;;;1.20;;
29776;SDS011;16677;52.224;7.484;2022-09-01T23:10:08;1.70;;;1.10;;
29776;SDS011;16677;52.224;7.484;2022-09-01T23:12:35;1.27;;;0.90;;
29776;SDS011;16677;52.224;7.484;2022-09-01T23:15:03;1.33;;;1.10;;
29776;SDS011;16677;52.224;7.484;2022-09-01T23:17:31;2.40;;;1.17;;
29776;SDS011;16677;52.224;7.484;2022-09-01T23:19:58;1.90;;;0.90;;
29776;SDS011;16677;52.224;7.484;2022-09-01T23:22:26;2.03;;;1.03;;
29776;SDS011;16677;52.224;7.484;2022-09-01T23:24:53;1.30;;;1.00;;
29776;SDS011;16677;52.224;7.484;2022-09-01T23:27:20;2.30;;;1.30;;
29776;SDS011;16677;52.224;7.484;2022-09-01T23:29:47;3.73;;;1.20;;
29776;SDS011;16677;52.224;7.484;2022-09-01T23:32:14;3.00;;;1.00;;
29776;SDS011;16677;52.224;7.484;2022-09-01T23:34:41;1.67;;;1.10;;
29776;SDS011;16677;52.224;7.484;2022-09-01T23:37:08;1.53;;;1.07;;
29776;SDS011;16677;52.224;7.484;2022-09-01T23:39:36;3.47;;;1.20;;
29776;SDS011;16677;52.224;7.484;2022-09-01T23:42:03;2.10;;;1.17;;
29776;SDS011;16677;52.224;7.484;2022-09-01T23:44:30;1.70;;;1.10;;
29776;SDS011;16677;52.224;7.484;2022-09-01T23:46:57;1.70;;;1.00;;
29776;SDS011;16677;52.224;7.484;2022-09-01T23:49:24;1.57;;;1.00;;
29776;SDS011;16677;52.224;7.484;2022-09-01T23:51:51;1.27;;;1.00;;
29776;SDS011;16677;52.224;7.484;2022-09-01T23:54:19;2.30;;;1.10;;
29776;SDS011;16677;52.224;7.484;2022-09-01T23:56:47;1.83;;;1.10;;
29776;SDS011;16677;52.224;7.484;2022-09-01T23:59:14;2.47;;;1.00;;
